Time;durP1;ratioP1;P1;durP2;ratioP2;P2;SDS_P1;SDS_P2;PMS_P1;PMS_P2;Temp;Humidity;BMP_temperature;BMP_pressure;BME280_temperature;BME280_humidity;BME280_pressure;Samples;Min_cycle;Max_cycle;Signal;HPM_P1;HPM_P2
2021/09/10 00:02:01;;;;;;;18.40;16.80;;;19.30;99.90;;;;;;4962865;28;21298;-75
2021/09/10 00:04:29;;;;;;;18.73;17.20;;;19.30;99.90;;;;;;4951344;28;20211;-74
2021/09/10 00:06:54;;;;;;;17.60;16.10;;;19.30;99.90;;;;;;4947180;28;20627;-74
2021/09/10 00:09:22;;;;;;;17.63;16.13;;;19.30;99.90;;;;;;4951414;29;20643;-74
2021/09/10 00:11:48;;;;;;;17.60;16.00;;;19.30;99.90;;;;;;4935024;28;20654;-74
2021/09/10 00:14:13;;;;;;;17.20;15.70;;;19.30;99.90;;;;;;4945330;28;20739;-74
2021/09/10 00:16:39;;;;;;;18.00;16.40;;;19.30;99.90;;;;;;4949506;28;20254;-74
2021/09/10 00:19:07;;;;;;;17.40;15.90;;;19.30;99.90;;;;;;4948178;28;20195;-75
2021/09/10 00:21:33;;;;;;;18.00;16.50;;;19.40;99.90;;;;;;4928513;29;20265;-74
2021/09/10 00:24:04;;;;;;;18.70;17.07;;;19.40;99.90;;;;;;4945982;28;20622;-75
2021/09/10 00:26:30;;;;;;;18.50;17.00;;;19.40;99.90;;;;;;4949361;28;20646;-74
2021/09/10 00:28:57;;;;;;;17.27;15.97;;;19.50;99.90;;;;;;4949377;28;20653;-74
2021/09/10 00:31:25;;;;;;;17.80;16.40;;;19.50;99.90;;;;;;4949451;28;20691;-75
2021/09/10 00:33:51;;;;;;;17.43;16.03;;;19.40;99.90;;;;;;4931238;28;20641;-76
2021/09/10 00:36:16;;;;;;;18.67;16.97;;;19.50;99.90;;;;;;4947266;28;21317;-74
2021/09/10 00:38:42;;;;;;;17.40;16.00;;;19.50;99.90;;;;;;4946556;28;20200;-74
2021/09/10 00:41:10;;;;;;;17.73;16.30;;;19.50;99.90;;;;;;4948124;28;20219;-74
2021/09/10 00:43:39;;;;;;;17.20;15.70;;;19.50;99.90;;;;;;4930389;29;20195;-74
2021/09/10 00:46:04;;;;;;;17.20;15.70;;;19.60;99.90;;;;;;4948811;28;20733;-74
2021/09/10 00:48:33;;;;;;;18.00;16.07;;;19.60;99.90;;;;;;4951274;29;20658;-74
2021/09/10 00:51:01;;;;;;;18.60;16.83;;;19.60;99.90;;;;;;4948700;28;20242;-75
2021/09/10 00:53:27;;;;;;;17.20;15.77;;;19.60;99.90;;;;;;4949173;28;20650;-74
2021/09/10 00:55:53;;;;;;;17.50;16.07;;;19.70;99.90;;;;;;4949766;28;20658;-74
2021/09/10 00:58:19;;;;;;;17.23;15.80;;;19.70;99.90;;;;;;4950087;28;20622;-74
2021/09/10 01:00:44;;;;;;;17.57;16.07;;;19.70;99.90;;;;;;4931755;28;21091;-74
2021/09/10 01:03:11;;;;;;;17.80;16.30;;;19.70;99.90;;;;;;4945624;28;20203;-74
2021/09/10 01:05:37;;;;;;;17.53;16.03;;;19.80;99.90;;;;;;4944977;28;20234;-74
2021/09/10 01:08:06;;;;;;;17.60;16.10;;;19.80;99.90;;;;;;4930786;28;20622;-75
2021/09/10 01:10:32;;;;;;;17.93;16.43;;;19.80;99.90;;;;;;4931336;28;20238;-75
2021/09/10 01:12:58;;;;;;;18.90;17.23;;;19.90;99.90;;;;;;4950743;28;20664;-74
2021/09/10 01:15:25;;;;;;;17.10;15.70;;;19.90;99.90;;;;;;4947180;28;20634;-75
2021/09/10 01:17:53;;;;;;;17.33;15.80;;;19.90;99.90;;;;;;4949420;28;20667;-75
2021/09/10 01:20:19;;;;;;;18.67;16.97;;;19.90;99.90;;;;;;4946363;28;21139;-75
2021/09/10 01:22:47;;;;;;;18.07;16.47;;;19.90;99.90;;;;;;4947043;28;20709;-75
2021/09/10 01:25:19;;;;;;;16.83;15.47;;;19.90;99.90;;;;;;4950037;28;20304;-75
2021/09/10 01:27:47;;;;;;;17.00;15.50;;;20.00;99.90;;;;;;4947395;28;20622;-74
2021/09/10 01:30:15;;;;;;;17.90;16.40;;;20.00;99.90;;;;;;4945792;28;20766;-74
2021/09/10 01:32:51;;;;;;;18.10;16.40;;;20.00;99.90;;;;;;4948838;28;20635;-75
2021/09/10 01:35:17;;;;;;;17.17;15.63;;;20.00;99.90;;;;;;4944986;28;20654;-75
2021/09/10 01:37:43;;;;;;;17.37;15.87;;;20.00;99.90;;;;;;4949625;28;20651;-75
2021/09/10 01:40:10;;;;;;;17.33;15.93;;;20.00;99.90;;;;;;4933776;28;20616;-74
2021/09/10 01:42:36;;;;;;;17.70;16.30;;;20.00;99.90;;;;;;4924248;28;20191;-75
2021/09/10 01:45:03;;;;;;;18.03;16.60;;;20.00;99.90;;;;;;4949634;28;20992;-74
2021/09/10 01:47:31;;;;;;;17.17;15.77;;;20.00;99.90;;;;;;4948477;28;20611;-74
2021/09/10 01:50:00;;;;;;;18.27;16.47;;;20.00;99.90;;;;;;4947687;28;20615;-74
2021/09/10 01:52:26;;;;;;;17.40;16.00;;;20.00;99.90;;;;;;4949271;28;20646;-74
2021/09/10 01:54:52;;;;;;;19.13;17.50;;;20.00;99.90;;;;;;4947076;28;20700;-74
2021/09/10 01:57:17;;;;;;;17.60;16.20;;;20.00;99.90;;;;;;4930529;28;20215;-75
2021/09/10 01:59:44;;;;;;;17.50;16.00;;;20.00;99.90;;;;;;4946742;28;20628;-75
2021/09/10 02:02:10;;;;;;;19.20;16.50;;;20.00;99.90;;;;;;4943968;28;20371;-75
2021/09/10 02:04:36;;;;;;;19.50;17.90;;;20.00;99.90;;;;;;4947227;28;20614;-75
2021/09/10 02:07:06;;;;;;;17.90;16.50;;;20.00;99.90;;;;;;4929158;29;20619;-74
2021/09/10 02:09:35;;;;;;;17.80;16.10;;;20.00;99.90;;;;;;4930018;29;20666;-75
2021/09/10 02:12:03;;;;;;;17.70;16.10;;;20.00;99.90;;;;;;4948068;28;21030;-74
2021/09/10 02:14:32;;;;;;;18.07;16.57;;;20.00;99.90;;;;;;4928039;28;20624;-74
2021/09/10 02:17:00;;;;;;;18.93;17.23;;;20.00;99.90;;;;;;4946165;28;20849;-74
2021/09/10 02:19:28;;;;;;;17.50;16.10;;;20.00;99.90;;;;;;4947844;28;21187;-74
2021/09/10 02:21:54;;;;;;;19.13;17.60;;;20.00;99.90;;;;;;4928676;29;20643;-75
2021/09/10 02:24:21;;;;;;;18.10;16.60;;;20.00;99.90;;;;;;4933757;29;20623;-74
2021/09/10 02:26:48;;;;;;;17.97;16.27;;;20.00;99.90;;;;;;4948037;28;20219;-74
2021/09/10 02:29:13;;;;;;;18.70;17.07;;;20.00;99.90;;;;;;4944715;28;20619;-75
2021/09/10 02:31:44;;;;;;;16.43;15.00;;;20.00;99.90;;;;;;4929827;29;20815;-75
2021/09/10 02:34:10;;;;;;;17.90;16.40;;;20.00;99.90;;;;;;4947300;29;20192;-75
2021/09/10 02:36:38;;;;;;;17.20;15.70;;;20.00;99.90;;;;;;4942399;28;20660;-74
2021/09/10 02:39:05;;;;;;;17.50;16.10;;;20.00;99.90;;;;;;4950703;29;20246;-74
2021/09/10 02:41:34;;;;;;;18.03;16.53;;;19.90;99.90;;;;;;4946879;28;20682;-74
2021/09/10 02:44:00;;;;;;;18.73;16.80;;;19.90;99.90;;;;;;4927270;29;20731;-76
2021/09/10 02:46:28;;;;;;;18.83;17.20;;;19.90;99.90;;;;;;4946573;28;20677;-74
2021/09/10 02:48:54;;;;;;;19.27;17.60;;;19.90;99.90;;;;;;4950384;29;20627;-74
2021/09/10 02:51:19;;;;;;;18.70;17.17;;;20.00;99.90;;;;;;4966120;28;20658;-74
2021/09/10 02:53:47;;;;;;;18.00;16.60;;;20.00;99.90;;;;;;4970852;28;20951;-75
2021/09/10 02:56:15;;;;;;;18.43;16.93;;;20.00;99.90;;;;;;4953632;28;20589;-74
2021/09/10 02:58:43;;;;;;;19.07;17.37;;;20.00;99.90;;;;;;4953691;29;20625;-75
2021/09/10 03:01:11;;;;;;;20.07;18.37;;;20.00;99.90;;;;;;4951010;28;21270;-74
2021/09/10 03:03:39;;;;;;;22.27;20.20;;;20.00;99.90;;;;;;4927926;29;21702;-74
2021/09/10 03:06:07;;;;;;;20.30;18.60;;;20.10;99.90;;;;;;4953113;28;20649;-74
2021/09/10 03:08:32;;;;;;;21.07;19.27;;;20.10;99.90;;;;;;4951417;28;20714;-75
2021/09/10 03:10:58;;;;;;;24.37;22.20;;;20.20;99.90;;;;;;4949460;28;21325;-74
2021/09/10 03:13:26;;;;;;;22.13;20.13;;;20.20;99.90;;;;;;4949495;28;20540;-75
2021/09/10 03:15:52;;;;;;;21.53;19.50;;;20.30;99.90;;;;;;4948502;28;20219;-75
2021/09/10 03:18:20;;;;;;;20.10;18.40;;;20.30;99.90;;;;;;4937578;29;20623;-75
2021/09/10 03:20:45;;;;;;;22.93;20.73;;;20.40;99.90;;;;;;4949155;28;20249;-75
2021/09/10 03:23:11;;;;;;;21.20;19.30;;;20.40;99.90;;;;;;4949883;28;20639;-74
2021/09/10 03:25:39;;;;;;;21.60;19.60;;;20.40;99.90;;;;;;4948475;28;20761;-74
2021/09/10 03:28:05;;;;;;;23.00;21.00;;;20.50;99.90;;;;;;4947489;28;20208;-76
2021/09/10 03:30:32;;;;;;;24.27;22.17;;;20.50;99.90;;;;;;4948008;28;20770;-74
2021/09/10 03:32:58;;;;;;;22.63;20.33;;;20.60;99.90;;;;;;4947022;28;20404;-74
2021/09/10 03:35:24;;;;;;;22.80;20.80;;;20.60;99.90;;;;;;4944748;28;20972;-75
2021/09/10 03:37:49;;;;;;;22.40;20.13;;;20.60;99.90;;;;;;4945201;28;20227;-75
2021/09/10 03:40:19;;;;;;;24.60;22.30;;;20.70;99.90;;;;;;4951061;28;20211;-74
2021/09/10 03:42:45;;;;;;;24.17;21.87;;;20.70;99.90;;;;;;4929709;29;20598;-74
2021/09/10 03:45:13;;;;;;;24.20;22.10;;;20.70;99.90;;;;;;4950618;28;20637;-74
2021/09/10 03:47:39;;;;;;;24.30;22.00;;;20.80;99.90;;;;;;4947441;28;20202;-75
2021/09/10 03:50:05;;;;;;;23.60;21.30;;;20.80;99.90;;;;;;4951215;29;20623;-75
2021/09/10 03:52:33;;;;;;;24.10;22.00;;;20.80;99.90;;;;;;4932306;29;20223;-74
2021/09/10 03:54:58;;;;;;;23.17;20.97;;;20.80;99.90;;;;;;4947553;28;20643;-75
2021/09/10 03:57:24;;;;;;;23.93;21.63;;;20.90;99.90;;;;;;4948073;28;20659;-76
2021/09/10 03:59:51;;;;;;;26.73;23.97;;;20.90;99.90;;;;;;4933567;29;20184;-74
2021/09/10 04:02:19;;;;;;;25.77;23.40;;;20.90;99.90;;;;;;4944775;28;20235;-74
2021/09/10 04:04:45;;;;;;;24.70;22.30;;;21.00;99.90;;;;;;4930387;28;20618;-74
2021/09/10 04:07:10;;;;;;;24.50;22.23;;;21.00;99.90;;;;;;4939309;28;21295;-74
2021/09/10 04:09:40;;;;;;;23.27;21.17;;;21.00;99.90;;;;;;4949213;28;20191;-74
2021/09/10 04:12:08;;;;;;;22.77;20.67;;;21.10;99.90;;;;;;4950170;28;20227;-74
2021/09/10 04:14:36;;;;;;;26.57;23.87;;;21.10;99.90;;;;;;4945870;28;20619;-75
2021/09/10 04:17:05;;;;;;;24.50;22.20;;;21.10;99.90;;;;;;4948049;28;20647;-75
2021/09/10 04:19:31;;;;;;;26.80;24.30;;;21.10;99.90;;;;;;4941566;28;20623;-75
2021/09/10 04:21:56;;;;;;;30.13;26.87;;;21.10;99.90;;;;;;4925486;29;20646;-75
2021/09/10 04:24:22;;;;;;;32.17;28.77;;;21.10;99.90;;;;;;4946691;28;20196;-74
2021/09/10 04:26:49;;;;;;;32.80;29.40;;;21.10;99.90;;;;;;4947505;28;20262;-74
2021/09/10 04:29:15;;;;;;;33.97;30.57;;;21.00;99.90;;;;;;4942992;28;20203;-74
2021/09/10 04:31:40;;;;;;;34.90;31.30;;;21.00;99.90;;;;;;4948546;29;20659;-74
2021/09/10 04:34:06;;;;;;;34.23;30.87;;;21.00;99.90;;;;;;4944912;28;20694;-75
2021/09/10 04:36:47;;;;;;;;;;;;;;;;;;;;;
2021/09/10 04:39:15;;;;;;;34.47;31.00;;;20.90;99.90;;;;;;4944600;28;20206;-74
2021/09/10 04:41:41;;;;;;;34.17;30.47;;;20.90;99.90;;;;;;4941831;28;20666;-74
2021/09/10 04:44:06;;;;;;;34.17;30.67;;;20.90;99.90;;;;;;4947912;28;20615;-74
2021/09/10 04:46:34;;;;;;;33.87;30.53;;;20.90;99.90;;;;;;4947444;28;20250;-74
2021/09/10 04:49:02;;;;;;;36.00;32.43;;;20.90;99.90;;;;;;4940800;28;20639;-75
2021/09/10 04:51:30;;;;;;;36.93;33.07;;;20.90;99.90;;;;;;4945899;28;20651;-75
2021/09/10 04:54:00;;;;;;;37.03;33.13;;;20.90;99.90;;;;;;4946028;28;20622;-74
2021/09/10 04:56:25;;;;;;;36.47;32.80;;;20.90;99.90;;;;;;4940068;28;20663;-75
2021/09/10 04:58:54;;;;;;;35.40;31.73;;;20.90;99.90;;;;;;4942303;28;20623;-75
2021/09/10 05:01:19;;;;;;;35.40;31.57;;;20.90;99.90;;;;;;4942160;28;20212;-75
2021/09/10 05:03:48;;;;;;;35.43;31.80;;;20.80;99.90;;;;;;4937021;28;21635;-76
2021/09/10 05:06:14;;;;;;;36.67;32.97;;;20.80;99.90;;;;;;4938171;28;20219;-77
2021/09/10 05:08:39;;;;;;;35.47;31.80;;;20.80;99.90;;;;;;4940832;28;20971;-74
2021/09/10 05:11:05;;;;;;;35.03;31.37;;;20.70;99.90;;;;;;4935080;28;20314;-75
2021/09/10 05:13:31;;;;;;;37.70;33.90;;;20.70;99.90;;;;;;4917725;28;20196;-75
2021/09/10 05:15:57;;;;;;;37.70;33.70;;;20.70;99.90;;;;;;4939504;28;20285;-75
2021/09/10 05:18:26;;;;;;;37.60;33.77;;;20.70;99.90;;;;;;4935534;28;20611;-75
2021/09/10 05:20:51;;;;;;;33.93;30.40;;;20.70;99.90;;;;;;4937210;28;20967;-75
2021/09/10 05:23:17;;;;;;;37.07;33.10;;;20.70;99.90;;;;;;4938843;28;20623;-75
2021/09/10 05:25:42;;;;;;;36.83;33.00;;;20.70;99.90;;;;;;4937235;28;20226;-74
2021/09/10 05:28:08;;;;;;;38.80;34.20;;;20.70;99.90;;;;;;4935744;28;20198;-74
2021/09/10 05:30:33;;;;;;;37.20;33.23;;;20.70;99.90;;;;;;4939710;28;20220;-75
2021/09/10 05:32:59;;;;;;;38.73;34.27;;;20.70;99.90;;;;;;4938947;28;20191;-75
2021/09/10 05:35:24;;;;;;;39.63;35.33;;;20.70;99.90;;;;;;4939555;28;20274;-75
2021/09/10 05:37:50;;;;;;;44.97;40.03;;;20.70;99.90;;;;;;4933089;28;20344;-74
2021/09/10 05:40:15;;;;;;;43.83;37.37;;;20.70;99.90;;;;;;4936200;28;20203;-75
2021/09/10 05:42:41;;;;;;;39.97;35.63;;;20.70;99.90;;;;;;4956358;28;20283;-75
2021/09/10 05:45:07;;;;;;;39.87;35.67;;;20.70;99.90;;;;;;4959524;28;20207;-76
2021/09/10 05:47:33;;;;;;;39.77;35.57;;;20.70;99.90;;;;;;4928358;28;20196;-75
2021/09/10 05:49:58;;;;;;;38.87;34.83;;;20.70;99.90;;;;;;4942426;28;20631;-74
2021/09/10 05:52:24;;;;;;;41.17;36.83;;;20.70;99.90;;;;;;4931026;29;20831;-74
2021/09/10 05:54:49;;;;;;;41.40;36.90;;;20.60;99.90;;;;;;4926948;28;20330;-75
2021/09/10 05:57:15;;;;;;;41.93;37.50;;;20.60;99.90;;;;;;4944861;28;20752;-75
2021/09/10 05:59:40;;;;;;;44.50;39.67;;;20.60;99.90;;;;;;4943781;28;21877;-74
2021/09/10 06:02:06;;;;;;;40.70;36.50;;;20.60;99.90;;;;;;4939274;28;20227;-76
2021/09/10 06:04:32;;;;;;;42.13;37.57;;;20.60;99.90;;;;;;4924534;28;20258;-75
2021/09/10 06:06:58;;;;;;;38.03;33.93;;;20.60;99.90;;;;;;4935099;28;20619;-75
2021/09/10 06:09:23;;;;;;;39.57;35.47;;;20.60;99.90;;;;;;4942863;28;20207;-74
2021/09/10 06:11:49;;;;;;;42.03;37.53;;;20.60;99.90;;;;;;4941621;28;20709;-75
2021/09/10 06:14:14;;;;;;;44.60;39.90;;;20.70;99.90;;;;;;4941034;28;20187;-74
2021/09/10 06:16:40;;;;;;;43.53;38.80;;;20.60;99.90;;;;;;4942692;28;20718;-75
2021/09/10 06:19:05;;;;;;;44.40;37.97;;;20.60;99.90;;;;;;4944199;28;20286;-74
2021/09/10 06:21:31;;;;;;;42.33;37.80;;;20.70;99.90;;;;;;4946407;28;20222;-74
2021/09/10 06:23:56;;;;;;;45.70;39.67;;;20.70;99.90;;;;;;4946768;28;20206;-75
2021/09/10 06:26:24;;;;;;;48.07;41.97;;;20.70;99.90;;;;;;4942298;28;20226;-75
2021/09/10 06:28:50;;;;;;;43.53;38.50;;;20.80;99.90;;;;;;4941281;28;20644;-74
2021/09/10 06:31:16;;;;;;;46.23;41.17;;;20.70;99.90;;;;;;4925377;29;20671;-74
2021/09/10 06:33:41;;;;;;;47.60;41.83;;;20.70;99.90;;;;;;4943342;28;20200;-75
2021/09/10 06:36:07;;;;;;;48.60;40.97;;;20.60;99.90;;;;;;4937552;28;20392;-75
2021/09/10 06:38:32;;;;;;;49.63;40.57;;;20.70;99.90;;;;;;4939785;28;20258;-75
2021/09/10 06:40:58;;;;;;;46.57;40.93;;;20.70;99.90;;;;;;4930497;28;20277;-74
2021/09/10 06:43:24;;;;;;;47.30;40.40;;;20.70;99.90;;;;;;4945940;28;20211;-76
2021/09/10 06:45:49;;;;;;;44.70;39.90;;;20.70;99.90;;;;;;4941431;28;20215;-75
2021/09/10 06:48:15;;;;;;;51.23;44.97;;;20.70;99.90;;;;;;4930280;29;20253;-74
2021/09/10 06:50:44;;;;;;;44.40;39.43;;;20.60;99.90;;;;;;4942884;28;20296;-74
2021/09/10 06:53:09;;;;;;;46.23;41.13;;;20.70;99.90;;;;;;4938166;28;20184;-74
2021/09/10 06:55:38;;;;;;;46.30;40.23;;;20.70;99.90;;;;;;4940408;28;20635;-74
2021/09/10 06:58:09;;;;;;;44.33;39.57;;;20.70;99.90;;;;;;4927733;28;20273;-74
2021/09/10 07:00:35;;;;;;;45.73;40.90;;;20.70;99.90;;;;;;4940355;28;20676;-74
2021/09/10 07:03:00;;;;;;;43.10;37.13;;;20.70;99.90;;;;;;4924295;29;20627;-74
2021/09/10 07:05:26;;;;;;;40.77;35.73;;;20.70;99.90;;;;;;4943331;28;20310;-74
2021/09/10 07:07:52;;;;;;;43.50;38.73;;;20.80;99.90;;;;;;4938191;28;20317;-75
2021/09/10 07:10:18;;;;;;;44.70;38.80;;;20.80;99.90;;;;;;4933052;28;20188;-74
2021/09/10 07:12:51;;;;;;;46.53;39.13;;;20.80;99.90;;;;;;4943589;28;23911;-75
2021/09/10 07:15:16;;;;;;;41.93;37.43;;;20.70;99.90;;;;;;4940277;28;20774;-75
2021/09/10 07:17:42;;;;;;;39.97;35.67;;;20.80;99.90;;;;;;4945746;28;21199;-74
2021/09/10 07:20:08;;;;;;;43.03;38.17;;;20.80;99.90;;;;;;4943796;28;20615;-74
2021/09/10 07:22:34;;;;;;;48.33;41.43;;;20.80;99.90;;;;;;4947030;28;20233;-75
2021/09/10 07:24:59;;;;;;;43.77;38.50;;;20.70;99.90;;;;;;4928096;28;20631;-76
2021/09/10 07:27:25;;;;;;;40.37;36.07;;;20.70;99.90;;;;;;4942370;28;20231;-75
2021/09/10 07:29:53;;;;;;;42.77;38.07;;;20.70;99.90;;;;;;4944205;28;20196;-74
2021/09/10 07:32:19;;;;;;;43.37;38.20;;;20.80;99.90;;;;;;4940914;28;20307;-75
2021/09/10 07:34:45;;;;;;;43.23;37.23;;;20.70;99.90;;;;;;4920276;28;20626;-75
2021/09/10 07:37:13;;;;;;;44.03;39.23;;;20.80;99.90;;;;;;4937512;28;20234;-75
2021/09/10 07:39:40;;;;;;;42.77;38.27;;;20.70;99.90;;;;;;4929308;29;20760;-75
2021/09/10 07:42:06;;;;;;;41.60;36.90;;;20.70;99.90;;;;;;4946929;28;21198;-74
2021/09/10 07:44:31;;;;;;;44.50;38.67;;;20.80;99.90;;;;;;4943898;28;20673;-74
2021/09/10 07:46:57;;;;;;;42.87;38.20;;;20.70;99.90;;;;;;4950198;29;20648;-75
2021/09/10 07:49:23;;;;;;;45.10;40.20;;;20.70;99.90;;;;;;4948152;28;20183;-74
2021/09/10 07:51:52;;;;;;;39.97;35.67;;;20.80;99.90;;;;;;4942832;28;20646;-75
2021/09/10 07:54:18;;;;;;;42.30;37.70;;;20.80;99.90;;;;;;4948169;29;20243;-75
2021/09/10 07:56:44;;;;;;;44.13;38.23;;;20.80;99.90;;;;;;4946859;28;20655;-74
2021/09/10 07:59:12;;;;;;;44.10;39.30;;;20.80;99.90;;;;;;4929749;29;21045;-74
2021/09/10 08:01:41;;;;;;;41.70;37.30;;;20.80;99.90;;;;;;4930372;28;20215;-75
2021/09/10 08:04:06;;;;;;;38.07;34.20;;;20.80;99.90;;;;;;4945557;28;20714;-74
2021/09/10 08:06:34;;;;;;;37.03;33.10;;;20.80;99.90;;;;;;4941742;28;20676;-75
2021/09/10 08:08:59;;;;;;;39.30;34.63;;;20.80;99.90;;;;;;4945444;28;21368;-75
2021/09/10 08:11:29;;;;;;;44.10;39.33;;;20.90;99.90;;;;;;4947302;28;20672;-74
2021/09/10 08:13:55;;;;;;;40.47;36.17;;;20.90;99.90;;;;;;4945656;28;20235;-74
2021/09/10 08:16:20;;;;;;;39.87;35.73;;;20.90;99.90;;;;;;4941758;28;20658;-74
2021/09/10 08:18:46;;;;;;;41.60;37.20;;;20.90;99.90;;;;;;4946971;28;20188;-74
2021/09/10 08:21:11;;;;;;;37.50;33.30;;;20.90;99.90;;;;;;4946670;28;20211;-75
2021/09/10 08:23:37;;;;;;;37.10;33.27;;;21.00;99.90;;;;;;4948611;28;20267;-74
2021/09/10 08:26:03;;;;;;;36.70;32.80;;;21.00;99.90;;;;;;4946771;28;20235;-74
2021/09/10 08:28:28;;;;;;;36.17;32.43;;;21.00;99.90;;;;;;4943332;28;20190;-74
2021/09/10 08:30:54;;;;;;;35.97;32.27;;;21.10;99.90;;;;;;4944375;28;20679;-75
2021/09/10 08:33:19;;;;;;;36.50;32.80;;;21.10;99.90;;;;;;4941556;28;20242;-75
2021/09/10 08:35:45;;;;;;;34.53;30.97;;;21.10;99.90;;;;;;4946422;28;20247;-75
2021/09/10 08:38:11;;;;;;;38.80;34.60;;;21.10;99.90;;;;;;4963447;29;20491;-74
2021/09/10 08:40:37;;;;;;;35.43;31.63;;;21.10;99.90;;;;;;4944709;29;20694;-74
2021/09/10 08:43:03;;;;;;;36.13;32.60;;;21.10;99.90;;;;;;4931107;29;20188;-74
2021/09/10 08:45:30;;;;;;;36.67;32.97;;;21.10;99.90;;;;;;4945246;28;20247;-74
2021/09/10 08:47:56;;;;;;;35.67;31.90;;;21.10;99.90;;;;;;4943588;28;20798;-74
2021/09/10 08:50:23;;;;;;;32.43;29.07;;;21.10;99.90;;;;;;4932290;28;21153;-75
2021/09/10 08:52:49;;;;;;;35.60;31.83;;;21.10;99.90;;;;;;4941485;28;21092;-75
2021/09/10 08:55:16;;;;;;;32.77;29.57;;;21.10;99.90;;;;;;4939194;28;20626;-75
2021/09/10 08:57:53;;;;;;;33.63;30.03;;;21.10;99.90;;;;;;4942095;28;20693;-74
2021/09/10 09:00:33;;;;;;;30.30;27.13;;;21.20;99.90;;;;;;4941198;28;20714;-75
2021/09/10 09:03:01;;;;;;;26.53;23.77;;;21.10;99.90;;;;;;4944552;29;20607;-75
2021/09/10 09:05:28;;;;;;;27.40;23.90;;;21.20;99.90;;;;;;4933638;28;20639;-75
2021/09/10 09:08:16;;;;;;;25.27;22.77;;;21.10;99.90;;;;;;4940735;28;20654;-74
2021/09/10 09:10:50;;;;;;;25.93;23.20;;;21.10;99.90;;;;;;4941467;28;24722;-74
2021/09/10 09:13:17;;;;;;;24.33;21.83;;;21.10;99.90;;;;;;4936597;28;20635;-74
2021/09/10 09:15:42;;;;;;;22.40;20.20;;;21.10;99.90;;;;;;4937366;28;20731;-74
2021/09/10 09:18:08;;;;;;;21.90;19.63;;;21.00;99.90;;;;;;4939589;28;21770;-74
2021/09/10 09:20:34;;;;;;;23.30;20.97;;;21.00;99.90;;;;;;4941773;28;20247;-76
2021/09/10 09:23:02;;;;;;;20.67;18.67;;;21.00;99.90;;;;;;4942974;28;20483;-74
2021/09/10 09:25:29;;;;;;;17.23;15.57;;;21.00;99.90;;;;;;4938684;28;20635;-75
2021/09/10 09:28:13;;;;;;;18.10;16.30;;;21.00;99.90;;;;;;4941517;28;20618;-75
2021/09/10 09:30:39;;;;;;;15.20;13.60;;;21.00;99.90;;;;;;4941970;28;20673;-75
2021/09/10 09:33:06;;;;;;;15.10;13.50;;;21.00;99.90;;;;;;4940498;28;20623;-75
2021/09/10 09:35:33;;;;;;;16.23;14.70;;;21.00;99.90;;;;;;4936023;28;20635;-75
2021/09/10 09:38:08;;;;;;;18.53;16.47;;;21.00;99.90;;;;;;4943041;28;20749;-75
2021/09/10 09:40:34;;;;;;;17.83;16.13;;;21.00;99.90;;;;;;4943131;28;20658;-75
2021/09/10 09:43:15;;;;;;;18.70;16.90;;;21.00;99.90;;;;;;4946559;28;20619;-74
2021/09/10 09:45:41;;;;;;;20.50;18.40;;;20.90;99.90;;;;;;4940795;28;23154;-74
2021/09/10 09:48:12;;;;;;;20.57;18.47;;;20.90;99.90;;;;;;4922799;29;20770;-74
2021/09/10 09:50:39;;;;;;;21.00;18.80;;;20.90;99.90;;;;;;4918399;29;20650;-75
2021/09/10 09:53:06;;;;;;;21.97;19.77;;;20.80;99.90;;;;;;4938020;28;20693;-75
2021/09/10 09:55:33;;;;;;;20.40;18.20;;;20.80;99.90;;;;;;4930364;28;20666;-74
2021/09/10 09:58:02;;;;;;;20.67;18.77;;;20.80;99.90;;;;;;4940557;28;20654;-75
2021/09/10 10:00:29;;;;;;;17.90;16.10;;;20.70;99.90;;;;;;4941293;28;20620;-74
2021/09/10 10:02:54;;;;;;;18.67;16.77;;;20.70;99.90;;;;;;4940766;28;21257;-74
2021/09/10 10:05:20;;;;;;;18.97;15.83;;;20.70;99.90;;;;;;4938338;28;21452;-75
2021/09/10 10:08:01;;;;;;;17.60;15.80;;;20.80;99.90;;;;;;4944091;28;20195;-75
2021/09/10 10:10:32;;;;;;;17.70;15.90;;;20.80;99.90;;;;;;4943222;28;20191;-74
2021/09/10 10:12:58;;;;;;;16.20;14.60;;;20.80;99.90;;;;;;4945405;28;20664;-75
2021/09/10 10:15:26;;;;;;;16.90;15.30;;;20.80;99.90;;;;;;4939339;28;20653;-74
2021/09/10 10:17:54;;;;;;;15.80;14.33;;;20.80;99.90;;;;;;4936987;28;20749;-75
2021/09/10 10:20:44;;;;;;;16.13;14.53;;;20.80;99.90;;;;;;4943657;28;24115;-74
2021/09/10 10:23:44;;;;;;;16.37;14.73;;;20.80;99.90;;;;;;4944371;28;20647;-74
2021/09/10 10:26:29;;;;;;;14.93;13.53;;;20.80;99.90;;;;;;4940811;28;20654;-74
2021/09/10 10:29:10;;;;;;;14.63;13.23;;;20.80;99.90;;;;;;4928194;28;22753;-75
2021/09/10 10:31:56;;;;;;;15.37;13.83;;;20.80;99.90;;;;;;4947595;28;20650;-74
2021/09/10 10:34:21;;;;;;;14.73;13.33;;;20.80;99.90;;;;;;4941696;28;20615;-74
2021/09/10 10:36:47;;;;;;;15.27;13.77;;;20.70;99.90;;;;;;4928120;29;20709;-74
2021/09/10 10:39:13;;;;;;;15.73;14.10;;;20.80;99.90;;;;;;4942822;28;20195;-74
2021/09/10 10:41:52;;;;;;;13.63;12.53;;;20.80;99.90;;;;;;4935692;28;20290;-75
2021/09/10 10:44:33;;;;;;;13.87;12.47;;;20.90;99.90;;;;;;4945326;28;20706;-75
2021/09/10 10:47:13;;;;;;;13.33;11.93;;;20.90;99.90;;;;;;4944781;28;20827;-74
2021/09/10 10:49:49;;;;;;;13.47;12.07;;;20.90;99.90;;;;;;4945902;28;20643;-74
2021/09/10 10:52:31;;;;;;;14.47;13.07;;;21.00;99.90;;;;;;4942043;28;20650;-74
2021/09/10 10:55:20;;;;;;;13.50;12.10;;;21.00;99.90;;;;;;4940229;28;20645;-74
2021/09/10 10:57:48;;;;;;;13.37;11.97;;;21.10;99.90;;;;;;4942430;28;20758;-74
2021/09/10 11:00:28;;;;;;;13.00;11.80;;;21.10;99.90;;;;;;4945314;28;20698;-74
2021/09/10 11:03:13;;;;;;;12.80;11.50;;;21.10;99.90;;;;;;4942386;28;20614;-74
2021/09/10 11:05:39;;;;;;;11.80;10.60;;;21.20;99.90;;;;;;4941657;28;20714;-75
2021/09/10 11:08:05;;;;;;;11.70;10.00;;;21.20;99.90;;;;;;4946906;28;20743;-74
2021/09/10 11:10:30;;;;;;;10.90;9.90;;;21.20;99.90;;;;;;4947401;28;20832;-74
2021/09/10 11:12:58;;;;;;;11.60;10.47;;;21.30;99.90;;;;;;4945271;28;20626;-75
2021/09/10 11:15:26;;;;;;;10.27;9.27;;;21.40;99.90;;;;;;4946739;28;20242;-74
2021/09/10 11:18:02;;;;;;;8.60;7.80;;;21.40;99.90;;;;;;4919118;28;20654;-75
2021/09/10 11:20:37;;;;;;;7.83;7.13;;;21.40;99.90;;;;;;4947033;28;20725;-75
2021/09/10 11:23:05;;;;;;;8.80;8.00;;;21.40;99.90;;;;;;4945565;28;20642;-75
2021/09/10 11:25:31;;;;;;;9.30;8.30;;;21.40;99.90;;;;;;4942968;28;21498;-75
2021/09/10 11:27:57;;;;;;;8.17;7.47;;;21.40;99.90;;;;;;4926279;29;20758;-74
2021/09/10 11:30:22;;;;;;;6.93;6.20;;;21.50;99.90;;;;;;4929534;28;20745;-74
2021/09/10 11:32:57;;;;;;;6.30;5.70;;;21.60;99.90;;;;;;4967299;29;20207;-75
2021/09/10 11:35:24;;;;;;;6.60;6.00;;;21.70;99.90;;;;;;4946705;28;20235;-75
2021/09/10 11:37:59;;;;;;;7.23;6.53;;;21.80;99.90;;;;;;4944078;28;21136;-75
2021/09/10 11:40:44;;;;;;;7.00;6.40;;;21.90;99.90;;;;;;4926715;28;20732;-76
2021/09/10 11:43:22;;;;;;;7.00;6.40;;;22.00;99.90;;;;;;4942365;28;20627;-75
2021/09/10 11:45:53;;;;;;;6.60;6.00;;;22.10;99.90;;;;;;4942139;28;21703;-75
2021/09/10 11:48:36;;;;;;;6.50;6.00;;;22.20;99.90;;;;;;4941363;28;20643;-74
2021/09/10 11:51:02;;;;;;;6.93;6.33;;;22.30;99.90;;;;;;4945056;28;20773;-75
2021/09/10 11:53:31;;;;;;;7.93;7.23;;;22.40;99.90;;;;;;4941724;28;20643;-74
2021/09/10 11:55:59;;;;;;;9.93;9.03;;;22.40;99.90;;;;;;4940226;28;21050;-75
2021/09/10 11:58:39;;;;;;;9.60;8.70;;;22.50;99.90;;;;;;4938513;28;20662;-76
2021/09/10 12:01:38;;;;;;;10.90;9.90;;;22.60;99.90;;;;;;4940962;28;20654;-74
2021/09/10 12:04:08;;;;;;;11.73;10.50;;;22.60;99.90;;;;;;4934360;28;20722;-74
2021/09/10 12:06:45;;;;;;;10.37;9.43;;;22.70;99.90;;;;;;4937356;28;20635;-76
2021/09/10 12:09:18;;;;;;;12.73;11.50;;;22.90;99.90;;;;;;4938953;28;20610;-75
2021/09/10 12:12:15;;;;;;;12.93;11.63;;;23.00;99.90;;;;;;4927705;28;20672;-74
2021/09/10 12:14:47;;;;;;;12.50;11.20;;;23.00;99.90;;;;;;4930837;28;20623;-74
2021/09/10 12:17:26;;;;;;;13.17;11.97;;;23.10;99.90;;;;;;4943707;28;21036;-74
2021/09/10 12:19:54;;;;;;;14.20;12.83;;;23.10;99.90;;;;;;4927469;28;21079;-75
2021/09/10 12:22:39;;;;;;;13.07;11.67;;;22.90;99.90;;;;;;4943219;28;21048;-74
2021/09/10 12:25:30;;;;;;;13.07;11.87;;;22.90;99.90;;;;;;4940214;28;20844;-74
2021/09/10 12:27:58;;;;;;;12.60;11.50;;;23.00;99.90;;;;;;4940032;28;20626;-75
2021/09/10 12:30:26;;;;;;;11.97;10.97;;;23.10;99.90;;;;;;4938931;28;20712;-74
2021/09/10 12:32:52;;;;;;;8.17;7.50;;;23.20;99.90;;;;;;4937568;28;20635;-76
2021/09/10 12:35:18;;;;;;;7.17;6.67;;;23.30;99.90;;;;;;4943985;28;20635;-74
2021/09/10 12:38:05;;;;;;;5.27;4.80;;;23.40;99.90;;;;;;4940305;28;20679;-74